Terminal Aerodrome Forecast
Issued by NWS

Home | Current Version | Previous Version | Text Only | Print | Product List | Glossary On
Versions: 1 2 3 4 5 6 7 8 9 10 11 12 13 14 15 16 17 18 19 20 21 22 23 24 25 26 27
000
FTUS45 KLKN 131700
TAFWMC
TAF
KWMC 131730Z 1318/1418 02013KT P6SM SKC
     FM132100 15008KT P6SM SCT080
     FM140300 VRB03KT P6SM SKC
     FM141400 30008KT P6SM FEW120=

USA.gov is the U.S. government's official web portal to all federal, state and local government web resources and services.